createdAt,value
2018-08-02T00:00:15.612Z,93.12
2018-08-02T00:01:15.612Z,93.89
2018-08-02T00:02:15.612Z,93.79
2018-08-02T00:03:15.616Z,93.6
2018-08-02T00:04:15.614Z,93.99
2018-08-02T00:05:15.612Z,93.31
2018-08-02T00:06:15.616Z,93.99
2018-08-02T00:07:15.614Z,93.6
2018-08-02T00:08:15.613Z,93.7
2018-08-02T00:09:15.366Z,93.7
2018-08-02T00:10:15.612Z,94.47
2018-08-02T00:11:15.360Z,94.28
2018-08-02T00:12:15.611Z,94.57
2018-08-02T00:13:15.612Z,94.28
2018-08-02T00:14:15.862Z,94.18
2018-08-02T00:15:15.616Z,94.47
2018-08-02T00:16:15.616Z,94.47
2018-08-02T00:17:15.614Z,94.67
2018-08-02T00:18:15.611Z,94.28
2018-08-02T00:19:15.611Z,94.57
2018-08-02T00:20:15.612Z,94.18
2018-08-02T00:21:15.612Z,94.37
2018-08-02T00:22:15.360Z,93.79
2018-08-02T00:23:15.631Z,93.7
2018-08-02T00:24:15.372Z,94.09
2018-08-02T00:25:15.613Z,93.79
2018-08-02T00:26:15.611Z,94.04
2018-08-02T00:27:15.360Z,94.04
2018-08-02T00:28:15.613Z,93.94
2018-08-02T00:29:15.360Z,93.89
2018-08-02T00:30:15.611Z,94.37
2018-08-02T00:31:15.616Z,94.43
2018-08-02T00:32:15.612Z,93.99
2018-08-02T00:33:15.612Z,94.13
2018-08-02T00:34:15.610Z,94.37
2018-08-02T00:35:15.613Z,93.79
2018-08-02T00:36:15.611Z,94.43
2018-08-02T00:37:15.612Z,93.75
2018-08-02T00:38:15.613Z,93.85
2018-08-02T00:39:15.615Z,94.62
2018-08-02T00:40:15.611Z,94.62
2018-08-02T00:41:15.611Z,94.33
2018-08-02T00:42:15.616Z,94.04
2018-08-02T00:43:15.616Z,93.65
2018-08-02T00:44:15.617Z,94.04
2018-08-02T00:45:15.863Z,93.65
2018-08-02T00:46:15.614Z,93.55
2018-08-02T00:47:15.610Z,93.75
2018-08-02T00:48:15.358Z,93.46
2018-08-02T00:49:15.608Z,93.85
2018-08-02T00:50:15.638Z,93.55
2018-08-02T00:51:15.612Z,93.94
2018-08-02T00:52:15.609Z,94.52
2018-08-02T00:53:15.611Z,94.33
2018-08-02T00:54:15.608Z,94.23
2018-08-02T00:55:15.609Z,94.71
2018-08-02T00:56:15.608Z,94.71
2018-08-02T00:57:15.607Z,94.81
2018-08-02T00:58:15.683Z,94.71
2018-08-02T00:59:15.618Z,94.91
2018-08-02T01:00:15.608Z,94.91
2018-08-02T01:01:15.784Z,94.91
2018-08-02T01:02:15.607Z,94.71
2018-08-02T01:03:15.641Z,94.71
2018-08-02T01:04:15.606Z,94.81
2018-08-02T01:05:15.608Z,94.33
2018-08-02T01:06:15.611Z,94.23
2018-08-02T01:07:15.604Z,94.33
2018-08-02T01:08:15.605Z,94.33
2018-08-02T01:09:15.605Z,93.7
2018-08-02T01:10:15.603Z,94.13
2018-08-02T01:11:15.604Z,93.46
2018-08-02T01:12:15.604Z,93.8
2018-08-02T01:13:15.604Z,93.9
2018-08-02T01:14:15.601Z,93.9
2018-08-02T01:15:15.602Z,93.99
2018-08-02T01:16:15.853Z,93.9
2018-08-02T01:17:15.603Z,93.94
2018-08-02T01:18:15.601Z,93.6
2018-08-02T01:19:15.602Z,93.22
2018-08-02T01:20:15.602Z,93.51
2018-08-02T01:21:15.604Z,93.51
2018-08-02T01:22:15.601Z,93.6
2018-08-02T01:23:15.600Z,93.51
2018-08-02T01:24:15.600Z,93.7
2018-08-02T01:25:15.599Z,93.6
2018-08-02T01:26:15.348Z,93.32
2018-08-02T01:27:15.598Z,93.9
2018-08-02T01:28:15.599Z,93.41
2018-08-02T01:29:15.348Z,93.9
2018-08-02T01:30:15.598Z,93.51
2018-08-02T01:31:15.348Z,93.8
2018-08-02T01:32:15.343Z,93.8
2018-08-02T01:33:15.596Z,93.7
2018-08-02T01:34:15.595Z,94.48
2018-08-02T01:35:15.595Z,94.38
2018-08-02T01:36:15.344Z,94.18
2018-08-02T01:37:15.594Z,94.76
2018-08-02T01:38:15.696Z,95.25
2018-08-02T01:39:15.594Z,95.15
2018-08-02T01:40:15.591Z,95.25
2018-08-02T01:41:15.341Z,95.15
2018-08-02T01:42:15.590Z,95.06
2018-08-02T01:43:15.594Z,95.06
2018-08-02T01:44:15.590Z,95.06
2018-08-02T01:45:15.596Z,95.06
2018-08-02T01:46:15.589Z,95.06
2018-08-02T01:47:15.594Z,95.15
2018-08-02T01:48:15.588Z,94.86
2018-08-02T01:49:15.335Z,94.57
2018-08-02T01:50:15.591Z,94.48
2018-08-02T01:51:15.587Z,94.43
2018-08-02T01:52:15.629Z,94.18
2018-08-02T01:53:15.587Z,94.24
2018-08-02T01:54:15.584Z,94.14
2018-08-02T01:55:15.584Z,94.48
2018-08-02T01:56:15.583Z,94.04
2018-08-02T01:57:15.584Z,93.95
2018-08-02T01:58:15.345Z,93.95
2018-08-02T01:59:15.584Z,93.75
2018-08-02T02:00:15.328Z,93.85
2018-08-02T02:01:15.586Z,93.95
2018-08-02T02:02:15.579Z,93.46
2018-08-02T02:03:15.326Z,92.98
2018-08-02T02:04:15.326Z,92.69
2018-08-02T02:05:15.577Z,92.69
2018-08-02T02:06:15.575Z,92.59
2018-08-02T02:07:15.580Z,92.88
2018-08-02T02:08:15.574Z,92.88
2018-08-02T02:09:15.573Z,92.88
2018-08-02T02:10:15.575Z,92.79
2018-08-02T02:11:15.571Z,92.59
2018-08-02T02:12:15.575Z,92.4
2018-08-02T02:13:15.573Z,92.4
2018-08-02T02:14:15.570Z,92.4
2018-08-02T02:15:15.319Z,92.11
2018-08-02T02:16:15.569Z,92.21
2018-08-02T02:17:15.571Z,92.21
2018-08-02T02:18:15.566Z,91.82
2018-08-02T02:19:15.566Z,91.82
2018-08-02T02:20:15.567Z,92.3
2018-08-02T02:21:15.566Z,91.91
2018-08-02T02:22:15.564Z,91.53
2018-08-02T02:23:15.563Z,91.72
2018-08-02T02:24:15.565Z,91.43
2018-08-02T02:25:15.561Z,90.56
2018-08-02T02:26:15.561Z,91.14
2018-08-02T02:27:15.307Z,90.66
2018-08-02T02:28:15.308Z,90.37
2018-08-02T02:29:15.557Z,90.47
2018-08-02T02:30:15.572Z,90.56
2018-08-02T02:31:15.559Z,90.37
2018-08-02T02:32:15.307Z,90.08
2018-08-02T02:33:15.556Z,89.98
2018-08-02T02:34:15.303Z,90.08
2018-08-02T02:35:15.302Z,89.98
2018-08-02T02:36:15.305Z,89.79
2018-08-02T02:37:15.555Z,89.31
2018-08-02T02:38:15.551Z,89.69
2018-08-02T02:39:15.551Z,89.59
2018-08-02T02:40:15.550Z,89.31
2018-08-02T02:41:15.553Z,89.01
2018-08-02T02:42:15.552Z,89.31
2018-08-02T02:43:15.299Z,88.82
2018-08-02T02:44:15.546Z,88.53
2018-08-02T02:45:15.545Z,88.15
2018-08-02T02:46:15.563Z,87.95
2018-08-02T02:47:15.545Z,87.37
2018-08-02T02:48:15.543Z,87.71
2018-08-02T02:49:15.290Z,87.37
2018-08-02T02:50:15.547Z,87.71
2018-08-02T02:51:15.542Z,87.66
2018-08-02T02:52:15.288Z,87.27
2018-08-02T02:53:15.288Z,87.81
2018-08-02T02:54:15.287Z,87.03
2018-08-02T02:55:15.541Z,86.74
2018-08-02T02:56:15.537Z,87.03
2018-08-02T02:57:15.284Z,86.83
2018-08-02T02:58:15.537Z,86.93
2018-08-02T02:59:15.538Z,86.83
2018-08-02T03:00:15.534Z,86.93
2018-08-02T03:01:15.533Z,86.93
2018-08-02T03:02:15.534Z,86.83
2018-08-02T03:03:15.281Z,86.65
2018-08-02T03:04:15.534Z,86.74
2018-08-02T03:05:15.535Z,86.74
2018-08-02T03:06:15.530Z,86.55
2018-08-02T03:07:15.529Z,86.65
2018-08-02T03:08:15.277Z,86.35
2018-08-02T03:09:15.276Z,86.65
2018-08-02T03:10:15.528Z,86.55
2018-08-02T03:11:15.532Z,86.45
2018-08-02T03:12:15.525Z,86.78
2018-08-02T03:13:15.532Z,86.69
2018-08-02T03:14:15.526Z,85.91
2018-08-02T03:15:15.526Z,85.87
2018-08-02T03:16:15.271Z,85.77
2018-08-02T03:17:15.272Z,86.2
2018-08-02T03:18:15.530Z,86.1
2018-08-02T03:19:15.523Z,86.1
2018-08-02T03:20:15.522Z,86.1
2018-08-02T03:21:15.521Z,86.3
2018-08-02T03:22:15.526Z,86.01
2018-08-02T03:23:15.269Z,86.2
2018-08-02T03:24:15.525Z,85.82
2018-08-02T03:25:15.520Z,86.01
2018-08-02T03:26:15.521Z,86.1
2018-08-02T03:27:15.521Z,85.82
2018-08-02T03:28:15.534Z,85.52
2018-08-02T03:29:15.518Z,85.39
2018-08-02T03:30:15.522Z,85.52
2018-08-02T03:31:15.522Z,85.52
2018-08-02T03:32:15.521Z,85.48
2018-08-02T03:33:15.264Z,85.19
2018-08-02T03:34:15.263Z,85.33
2018-08-02T03:35:15.518Z,85.42
2018-08-02T03:36:15.515Z,85.33
2018-08-02T03:37:15.269Z,85.29
2018-08-02T03:38:15.261Z,85.14
2018-08-02T03:39:15.261Z,85.14
2018-08-02T03:40:15.511Z,85.24
2018-08-02T03:41:15.511Z,85.33
2018-08-02T03:42:15.510Z,85.14
2018-08-02T03:43:15.512Z,85.33
2018-08-02T03:44:15.624Z,85.33
2018-08-02T03:45:15.513Z,84.46
2018-08-02T03:46:15.509Z,85
2018-08-02T03:47:15.510Z,84.84
2018-08-02T03:48:15.510Z,85.39
2018-08-02T03:49:15.508Z,84.56
2018-08-02T03:50:15.510Z,84.56
2018-08-02T03:51:15.514Z,84.71
2018-08-02T03:52:15.507Z,84.75
2018-08-02T03:53:15.511Z,84.94
2018-08-02T03:54:15.515Z,84.42
2018-08-02T03:55:15.510Z,84.42
2018-08-02T03:56:15.510Z,84.71
2018-08-02T03:57:15.254Z,84.71
2018-08-02T03:58:15.510Z,84.52
2018-08-02T03:59:15.504Z,84.61
2018-08-02T04:00:15.508Z,84.32
2018-08-02T04:01:15.504Z,84.03
2018-08-02T04:02:15.504Z,83.84
2018-08-02T04:03:15.504Z,84.13
2018-08-02T04:04:15.502Z,84.03
2018-08-02T04:05:15.503Z,83.94
2018-08-02T04:06:15.501Z,82.87
2018-08-02T04:07:15.503Z,83.06
2018-08-02T04:08:15.504Z,82.78
2018-08-02T04:09:15.252Z,83.16
2018-08-02T04:10:15.504Z,83.16
2018-08-02T04:11:15.500Z,82.58
2018-08-02T04:12:15.498Z,82.87
2018-08-02T04:13:15.499Z,83.06
2018-08-02T04:14:15.498Z,82.48
2018-08-02T04:15:15.502Z,82.58
2018-08-02T04:16:15.504Z,82.87
2018-08-02T04:17:15.499Z,81.81
2018-08-02T04:18:15.496Z,81.9
2018-08-02T04:19:15.249Z,81.52
2018-08-02T04:20:15.502Z,81.71
2018-08-02T04:21:15.497Z,81.32
2018-08-02T04:22:15.495Z,81.52
2018-08-02T04:23:15.498Z,81.52
2018-08-02T04:24:15.494Z,81.23
2018-08-02T04:25:15.494Z,81.23
2018-08-02T04:26:15.242Z,81.52
2018-08-02T04:27:15.492Z,81.23
2018-08-02T04:28:15.492Z,80.46
2018-08-02T04:29:15.493Z,80.74
2018-08-02T04:30:15.492Z,80.74
2018-08-02T04:31:15.499Z,80.94
2018-08-02T04:32:15.240Z,80.46
2018-08-02T04:33:15.490Z,80.36
2018-08-02T04:34:15.493Z,79.97
2018-08-02T04:35:15.494Z,80.26
2018-08-02T04:36:15.239Z,80.36
2018-08-02T04:37:15.490Z,80.26
2018-08-02T04:38:15.490Z,79.78
2018-08-02T04:39:15.489Z,79.49
2018-08-02T04:40:15.488Z,79.68
2018-08-02T04:41:15.498Z,79.87
2018-08-02T04:42:15.613Z,79.58
2018-08-02T04:43:15.488Z,79.58
2018-08-02T04:44:15.494Z,79.68
2018-08-02T04:45:15.490Z,79.97
2018-08-02T04:46:15.488Z,78.52
2018-08-02T04:47:15.488Z,78.52
2018-08-02T04:48:15.487Z,78.81
2018-08-02T04:49:15.488Z,78.85
2018-08-02T04:50:15.488Z,78.66
2018-08-02T04:51:15.501Z,78.66
2018-08-02T04:52:15.489Z,78.75
2018-08-02T04:53:15.487Z,78.46
2018-08-02T04:54:15.490Z,78.66
2018-08-02T04:55:15.488Z,78.56
2018-08-02T04:56:15.535Z,78.27
2018-08-02T04:57:15.488Z,78.56
2018-08-02T04:58:15.487Z,77.98
2018-08-02T04:59:15.492Z,78.46
2018-08-02T05:00:15.489Z,78.79
2018-08-02T05:01:15.552Z,78.41
2018-08-02T05:02:15.488Z,79.17
2018-08-02T05:03:15.497Z,78.41
2018-08-02T05:04:15.489Z,78.31
2018-08-02T05:05:15.489Z,78.5
2018-08-02T05:06:15.490Z,78.89
2018-08-02T05:07:15.493Z,79.17
2018-08-02T05:08:15.643Z,78.89
2018-08-02T05:09:15.494Z,78.54
2018-08-02T05:10:15.494Z,78.31
2018-08-02T05:11:15.494Z,78.25
2018-08-02T05:12:15.495Z,78.25
2018-08-02T05:13:15.494Z,78.34
2018-08-02T05:14:15.494Z,77.86
2018-08-02T05:15:15.495Z,78.25
2018-08-02T05:16:15.244Z,78.44
2018-08-02T05:17:15.496Z,78.44
2018-08-02T05:18:15.246Z,78.15
2018-08-02T05:19:15.497Z,78.09
2018-08-02T05:20:15.499Z,78.05
2018-08-02T05:21:15.503Z,78
2018-08-02T05:22:15.606Z,78.09
2018-08-02T05:23:15.504Z,78.29
2018-08-02T05:24:15.505Z,78.77
2018-08-02T05:25:15.507Z,78.09
2018-08-02T05:26:15.641Z,77.75
2018-08-02T05:27:15.514Z,77.84
2018-08-02T05:28:15.258Z,77.65
2018-08-02T05:29:15.512Z,77.65
2018-08-02T05:30:15.513Z,78.13
2018-08-02T05:31:15.520Z,77.94
2018-08-02T05:32:15.517Z,78.13
2018-08-02T05:33:15.517Z,77.84
2018-08-02T05:34:15.705Z,77.55
2018-08-02T05:35:15.974Z,78.33
2018-08-02T05:36:16.823Z,77.65
2018-08-02T05:37:15.274Z,77.55
2018-08-02T05:38:15.528Z,77.55
2018-08-02T05:39:15.531Z,78.13
2018-08-02T05:40:15.539Z,77.84
2018-08-02T05:41:15.534Z,77.55
2018-08-02T05:42:15.535Z,77.39
2018-08-02T05:43:15.539Z,77.69
2018-08-02T05:44:15.541Z,78.17
2018-08-02T05:45:15.541Z,77.84
2018-08-02T05:46:15.546Z,77.78
2018-08-02T05:47:15.551Z,77.01
2018-08-02T05:48:15.548Z,77.01
2018-08-02T05:49:15.551Z,77.2
2018-08-02T05:50:15.556Z,77.29
2018-08-02T05:51:15.556Z,77.39
2018-08-02T05:52:15.558Z,77.53
2018-08-02T05:53:15.564Z,77.04
2018-08-02T05:54:15.568Z,76.46
2018-08-02T05:55:15.571Z,76.46
2018-08-02T05:56:15.576Z,75.78
2018-08-02T05:57:15.574Z,75.72
2018-08-02T05:58:15.579Z,75.82
2018-08-02T05:59:15.581Z,75.24
2018-08-02T06:00:15.589Z,74.5
2018-08-02T06:01:15.591Z,73.72
2018-08-02T06:02:15.592Z,73.08
2018-08-02T06:03:15.600Z,71.62
2018-08-02T06:04:15.620Z,71.46
2018-08-02T06:05:15.605Z,70.87
2018-08-02T06:06:15.611Z,70.62
2018-08-02T06:07:15.941Z,69.58
2018-08-02T06:08:15.622Z,68.84
2018-08-02T06:09:15.628Z,67.28
2018-08-02T06:10:15.634Z,66.24
2018-08-02T06:11:15.643Z,66.47
2018-08-02T06:12:15.447Z,65.3
2018-08-02T06:13:15.654Z,65.63
2018-08-02T06:14:15.409Z,64
2018-08-02T06:15:15.674Z,63.21
2018-08-02T06:16:15.677Z,62.37
2018-08-02T06:17:15.690Z,62.47
2018-08-02T06:18:15.691Z,62.47
2018-08-02T06:19:15.710Z,62.15
2018-08-02T06:20:15.707Z,62.18
2018-08-02T06:21:15.715Z,61.23
2018-08-02T06:22:15.728Z,59.79
2018-08-02T06:23:15.733Z,59.5
2018-08-02T06:24:15.845Z,58.55
2018-08-02T06:25:15.751Z,59.33
2018-08-02T06:26:15.776Z,58.26
2018-08-02T06:27:15.768Z,58.45
2018-08-02T06:28:15.571Z,58.65
2018-08-02T06:29:15.893Z,58.36
2018-08-02T06:30:15.814Z,57.57
2018-08-02T06:31:15.810Z,57.7
2018-08-02T06:32:15.810Z,57.57
2018-08-02T06:33:15.819Z,58.36
2018-08-02T06:34:15.829Z,58.72
2018-08-02T06:35:15.847Z,59.77
2018-08-02T06:36:15.593Z,59.57
2018-08-02T06:37:15.859Z,60.52
2018-08-02T06:38:15.860Z,60.91
2018-08-02T06:39:15.615Z,61.17
2018-08-02T06:40:15.624Z,61.27
2018-08-02T06:41:15.881Z,61.66
2018-08-02T06:42:15.892Z,62.31
2018-08-02T06:43:15.900Z,62.99
2018-08-02T06:44:15.653Z,63.35
2018-08-02T06:45:15.911Z,63.74
2018-08-02T06:46:15.919Z,64.2
2018-08-02T06:47:15.928Z,64.59
2018-08-02T06:48:15.932Z,64.26
2018-08-02T06:49:15.942Z,65.33
2018-08-02T06:50:15.948Z,65.72
2018-08-02T06:51:15.954Z,65.5
2018-08-02T06:52:15.961Z,66.17
2018-08-02T06:53:15.965Z,65.98
2018-08-02T06:54:15.975Z,66.08
2018-08-02T06:55:15.982Z,65.79
2018-08-02T06:56:15.983Z,66.47
2018-08-02T06:57:15.989Z,66.63
2018-08-02T06:58:15.997Z,67.41
2018-08-02T06:59:16.002Z,67.5
2018-08-02T07:00:16.006Z,67.8
2018-08-02T07:01:16.018Z,67.57
2018-08-02T07:02:16.017Z,67.57
2018-08-02T07:03:16.023Z,68.35
2018-08-02T07:04:16.027Z,68.05
2018-08-02T07:05:16.036Z,68.15
2018-08-02T07:06:16.052Z,68.25
2018-08-02T07:07:16.042Z,68.74
2018-08-02T07:08:16.053Z,68.64
2018-08-02T07:09:16.054Z,68.44
2018-08-02T07:10:15.804Z,68.74
2018-08-02T07:11:16.064Z,68.51
2018-08-02T07:12:16.093Z,68.6
2018-08-02T07:13:16.070Z,68.7
2018-08-02T07:14:16.078Z,69.22
2018-08-02T07:15:16.090Z,68.25
2018-08-02T07:16:16.083Z,67.96
2018-08-02T07:17:16.087Z,67.28
2018-08-02T07:18:16.268Z,67.08
2018-08-02T07:19:16.104Z,67.18
2018-08-02T07:20:16.105Z,66.99
2018-08-02T07:21:16.117Z,67.34
2018-08-02T07:22:16.114Z,66.5
2018-08-02T07:23:16.112Z,66.79
2018-08-02T07:24:16.118Z,66.66
2018-08-02T07:25:16.122Z,66.76
2018-08-02T07:26:16.131Z,66.47
2018-08-02T07:27:16.135Z,66.66
2018-08-02T07:28:16.136Z,66.76
2018-08-02T07:29:16.145Z,66.08
2018-08-02T07:30:16.148Z,65.69
2018-08-02T07:31:16.148Z,66.08
2018-08-02T07:32:16.156Z,65.43
2018-08-02T07:33:16.158Z,64.95
2018-08-02T07:34:16.161Z,65.43
2018-08-02T07:35:16.166Z,64.95
2018-08-02T07:36:16.172Z,65.14
2018-08-02T07:37:16.175Z,65.33
2018-08-02T07:38:16.180Z,65.33
2018-08-02T07:39:16.181Z,65.33
2018-08-02T07:40:16.187Z,65.04
2018-08-02T07:41:16.191Z,64.85
2018-08-02T07:42:16.197Z,64.26
2018-08-02T07:43:16.641Z,64.29
2018-08-02T07:44:16.396Z,63.29
2018-08-02T07:45:16.207Z,63.97
2018-08-02T07:46:16.211Z,63.59
2018-08-02T07:47:16.218Z,63.52
2018-08-02T07:48:15.970Z,63.62
2018-08-02T07:49:16.227Z,63.71
2018-08-02T07:50:15.980Z,63.71
2018-08-02T07:51:15.983Z,64
2018-08-02T07:52:15.987Z,62.74
2018-08-02T07:53:16.242Z,62.74
2018-08-02T07:54:16.249Z,62.19
2018-08-02T07:55:16.254Z,62.77
2018-08-02T07:56:16.450Z,63.06
2018-08-02T07:57:16.012Z,63.23
2018-08-02T07:58:16.016Z,63.26
2018-08-02T07:59:16.021Z,63.13
2018-08-02T08:00:16.274Z,61.99
2018-08-02T08:01:16.284Z,61.9
2018-08-02T08:02:16.288Z,62.09
2018-08-02T08:03:16.289Z,62.19
2018-08-02T08:04:16.299Z,61.99
2018-08-02T08:05:16.049Z,62.29
2018-08-02T08:06:16.304Z,61.9
2018-08-02T08:07:16.314Z,62.19
2018-08-02T08:08:16.314Z,62.19
2018-08-02T08:09:16.320Z,61.7
2018-08-02T08:10:16.327Z,61.8
2018-08-02T08:11:16.580Z,62.09
2018-08-02T08:12:16.342Z,61.7
2018-08-02T08:13:16.090Z,62.19
2018-08-02T08:14:16.094Z,62.09
2018-08-02T08:15:16.391Z,62.16
2018-08-02T08:16:16.430Z,63.13
2018-08-02T08:17:16.363Z,63.32
2018-08-02T08:18:16.406Z,62.16
2018-08-02T08:19:16.376Z,61.96
2018-08-02T08:20:16.131Z,61.99
2018-08-02T08:21:16.386Z,61.99
2018-08-02T08:22:16.433Z,61.9
2018-08-02T08:23:16.398Z,61.11
2018-08-02T08:24:16.400Z,61.8
2018-08-02T08:25:16.152Z,61.9
2018-08-02T08:26:16.410Z,61.6
2018-08-02T08:27:16.415Z,61.02
2018-08-02T08:28:16.425Z,61.02
2018-08-02T08:29:16.440Z,60.72
2018-08-02T08:30:16.433Z,60.92
2018-08-02T08:31:16.437Z,60.63
2018-08-02T08:32:16.271Z,60.05
2018-08-02T08:33:16.447Z,59.75
2018-08-02T08:34:16.455Z,59.56
2018-08-02T08:35:16.462Z,59.78
2018-08-02T08:36:16.721Z,58.15
2018-08-02T08:37:26.542Z,58.06
2018-08-02T08:38:16.522Z,57.11
2018-08-02T08:39:16.489Z,56.85
2018-08-02T08:40:16.495Z,56.26
2018-08-02T08:41:16.506Z,56.16
2018-08-02T08:42:16.514Z,55.32
2018-08-02T08:43:16.269Z,54.05
2018-08-02T08:44:16.277Z,53.36
2018-08-02T08:45:16.537Z,54.07
2018-08-02T08:46:16.546Z,54.46
2018-08-02T08:47:16.648Z,54.05
2018-08-02T08:48:16.565Z,54.07
2018-08-02T08:49:16.572Z,54.93
2018-08-02T08:50:16.584Z,55.02
2018-08-02T08:51:16.589Z,54.24
2018-08-02T08:52:16.360Z,54.24
2018-08-02T08:53:16.373Z,54.14
2018-08-02T08:54:16.365Z,55.19
2018-08-02T08:55:16.623Z,54.6
2018-08-02T08:56:16.648Z,53.89
2018-08-02T08:57:16.645Z,54.21
2018-08-02T08:58:16.648Z,53.8
2018-08-02T08:59:16.660Z,54.11
2018-08-02T09:00:16.664Z,53.31
2018-08-02T09:01:16.675Z,53.89
2018-08-02T09:02:16.427Z,54.19
2018-08-02T09:03:16.770Z,53.21
2018-08-02T09:04:16.693Z,53.11
2018-08-02T09:05:16.449Z,53.5
2018-08-02T09:06:16.455Z,53.99
2018-08-02T09:07:16.719Z,53.89
2018-08-02T09:08:16.722Z,53.99
2018-08-02T09:09:16.476Z,53.41
2018-08-02T09:10:16.733Z,53.21
2018-08-02T09:11:16.490Z,53.89
2018-08-02T09:12:16.748Z,54.09
2018-08-02T09:13:16.755Z,53.6
2018-08-02T09:14:16.761Z,53.6
2018-08-02T09:15:16.515Z,53.99
2018-08-02T09:16:16.769Z,53.99
2018-08-02T09:17:16.781Z,54.28
2018-08-02T09:18:16.782Z,54.26
2018-08-02T09:19:16.788Z,53.89
2018-08-02T09:20:16.797Z,53.48
2018-08-02T09:21:16.799Z,53.58
2018-08-02T09:22:16.810Z,53.67
2018-08-02T09:23:16.811Z,54.16
2018-08-02T09:24:16.828Z,54.06
2018-08-02T09:25:16.821Z,53.87
2018-08-02T09:26:16.828Z,55.3
2018-08-02T09:27:16.848Z,54.26
2018-08-02T09:28:16.585Z,54.26
2018-08-02T09:29:16.845Z,55.23
2018-08-02T09:30:16.850Z,54.91
2018-08-02T09:31:16.856Z,54.91
2018-08-02T09:32:17.022Z,54.91
2018-08-02T09:33:17.245Z,54.91
2018-08-02T09:34:16.869Z,55.13
2018-08-02T09:35:16.884Z,55.04
2018-08-02T09:36:16.879Z,54.85
2018-08-02T09:37:16.892Z,54.55
2018-08-02T09:38:16.636Z,54.65
2018-08-02T09:39:16.894Z,54.55
2018-08-02T09:40:16.650Z,54.75
2018-08-02T09:41:16.904Z,54.94
2018-08-02T09:42:16.907Z,54.85
2018-08-02T09:43:16.911Z,54.09
2018-08-02T09:44:16.928Z,53.99
2018-08-02T09:45:16.930Z,53.99
2018-08-02T09:46:16.939Z,53.7
2018-08-02T09:47:16.932Z,54.06
2018-08-02T09:48:16.936Z,54.16
2018-08-02T09:49:16.941Z,54.36
2018-08-02T09:50:16.697Z,54.26
2018-08-02T09:51:16.952Z,53.38
2018-08-02T09:52:16.956Z,53.8
2018-08-02T09:53:16.962Z,53.87
2018-08-02T09:54:16.967Z,53.8
2018-08-02T09:55:16.720Z,53.58
2018-08-02T09:56:16.725Z,54.09
2018-08-02T09:57:16.729Z,53.99
2018-08-02T09:58:16.735Z,53.21
2018-08-02T09:59:16.990Z,53.02
2018-08-02T10:00:16.994Z,52.73
2018-08-02T10:01:17.001Z,52.53
2018-08-02T10:02:17.005Z,52.73
2018-08-02T10:03:17.015Z,52.07
2018-08-02T10:04:17.013Z,52.07
2018-08-02T10:05:16.768Z,51.68
2018-08-02T10:06:17.026Z,51.97
2018-08-02T10:07:17.031Z,51.48
2018-08-02T10:08:17.044Z,51.97
2018-08-02T10:09:17.040Z,52.07
2018-08-02T10:10:17.046Z,52.17
2018-08-02T10:11:17.050Z,50.9
2018-08-02T10:12:17.058Z,50.9
2018-08-02T10:13:16.809Z,51.36
2018-08-02T10:14:17.066Z,50.97
2018-08-02T10:15:16.819Z,50.97
2018-08-02T10:16:17.077Z,51.07
2018-08-02T10:17:16.828Z,51.36
2018-08-02T10:18:17.091Z,51.46
2018-08-02T10:19:17.090Z,51.17
2018-08-02T10:20:17.095Z,50.97
2018-08-02T10:21:16.849Z,50.19
2018-08-02T10:22:17.110Z,49.93
2018-08-02T10:23:17.112Z,50.51
2018-08-02T10:24:17.114Z,50.8
2018-08-02T10:25:17.124Z,49.17
2018-08-02T10:26:17.123Z,48.58
2018-08-02T10:27:17.131Z,48.97
2018-08-02T10:28:16.882Z,50.02
2018-08-02T10:29:17.160Z,50.51
2018-08-02T10:30:17.144Z,50.04
2018-08-02T10:31:17.150Z,50.04
2018-08-02T10:32:16.904Z,49.37
2018-08-02T10:33:16.910Z,49.07
2018-08-02T10:34:17.164Z,49.19
2018-08-02T10:35:17.169Z,48.9
2018-08-02T10:36:16.925Z,48.02
2018-08-02T10:37:17.180Z,47.27
2018-08-02T10:38:16.934Z,48.24
2018-08-02T10:39:17.190Z,49.32
2018-08-02T10:40:17.204Z,47.66
2018-08-02T10:41:17.201Z,48.54
2018-08-02T10:42:17.209Z,48.73
2018-08-02T10:43:17.213Z,48.24
2018-08-02T10:44:17.222Z,48.26
2018-08-02T10:45:17.222Z,48.63
2018-08-02T10:46:16.977Z,48.63
2018-08-02T10:47:17.240Z,48.24
2018-08-02T10:48:17.243Z,47.28
2018-08-02T10:49:17.250Z,47.58
2018-08-02T10:50:17.001Z,47.6
2018-08-02T10:51:17.005Z,47.7
2018-08-02T10:52:17.264Z,47.11
2018-08-02T10:53:17.270Z,46.04
2018-08-02T10:54:17.276Z,46.04
2018-08-02T10:55:17.030Z,45.65
2018-08-02T10:56:17.479Z,44.87
2018-08-02T10:57:17.296Z,44.89
2018-08-02T10:58:17.299Z,45.37
2018-08-02T10:59:17.305Z,45.47
2018-08-02T11:00:17.315Z,45.28
2018-08-02T11:01:17.358Z,45.37
2018-08-02T11:02:17.455Z,45.47
2018-08-02T11:03:17.331Z,45.55
2018-08-02T11:04:17.336Z,45.47
2018-08-02T11:05:17.345Z,45.18
2018-08-02T11:06:17.097Z,45.37
2018-08-02T11:07:17.104Z,45.57
2018-08-02T11:08:17.110Z,45.76
2018-08-02T11:09:17.377Z,46.06
2018-08-02T11:10:17.375Z,45.67
2018-08-02T11:11:17.381Z,45.97
2018-08-02T11:12:17.389Z,45.97
2018-08-02T11:13:17.395Z,46.06
2018-08-02T11:14:17.408Z,45.57
2018-08-02T11:15:17.154Z,46.06
2018-08-02T11:16:17.161Z,46.06
2018-08-02T11:17:17.419Z,45.76
2018-08-02T11:18:17.172Z,45.47
2018-08-02T11:19:17.435Z,45.47
2018-08-02T11:20:17.480Z,46.06
2018-08-02T11:21:17.446Z,45.89
2018-08-02T11:22:17.455Z,45.1
2018-08-02T11:23:17.465Z,45.5
2018-08-02T11:24:17.460Z,45.5
2018-08-02T11:25:17.467Z,45.69
2018-08-02T11:26:17.474Z,45.86
2018-08-02T11:27:17.480Z,45.57
2018-08-02T11:28:17.566Z,45.86
2018-08-02T11:29:17.493Z,45.97
2018-08-02T11:30:17.500Z,46.06
2018-08-02T11:31:17.505Z,46.43
2018-08-02T11:32:17.511Z,46.45
2018-08-02T11:33:17.517Z,46.84
2018-08-02T11:34:17.527Z,46.45
2018-08-02T11:35:17.540Z,46.55
2018-08-02T11:36:17.539Z,46.55
2018-08-02T11:37:17.539Z,46.45
2018-08-02T11:38:17.299Z,46.55
2018-08-02T11:39:17.556Z,46.94
2018-08-02T11:40:17.560Z,47.04
2018-08-02T11:41:17.575Z,47.14
2018-08-02T11:42:17.571Z,46.94
2018-08-02T11:43:17.578Z,46.84
2018-08-02T11:44:17.599Z,46.53
2018-08-02T11:45:17.590Z,45.47
2018-08-02T11:46:17.595Z,45.86
2018-08-02T11:47:17.604Z,45.76
2018-08-02T11:48:17.607Z,45.76
2018-08-02T11:49:17.614Z,45.67
2018-08-02T11:50:17.619Z,45.2
2018-08-02T11:51:17.625Z,45.69
2018-08-02T11:52:17.631Z,45.01
2018-08-02T11:53:17.386Z,44.23
2018-08-02T11:54:17.651Z,43.93
2018-08-02T11:55:17.649Z,44.52
2018-08-02T11:56:17.746Z,44.62
2018-08-02T11:57:18.031Z,44.3
2018-08-02T11:58:17.668Z,44.59
2018-08-02T11:59:17.684Z,45.37
2018-08-02T12:00:17.682Z,45.28
2018-08-02T12:01:17.685Z,45.28
2018-08-02T12:02:17.786Z,45.28
2018-08-02T12:03:17.819Z,45.28
2018-08-02T12:04:17.703Z,45.37
2018-08-02T12:05:17.725Z,44.89
2018-08-02T12:06:17.716Z,44.98
2018-08-02T12:07:17.721Z,44.89
2018-08-02T12:08:17.939Z,45.18
2018-08-02T12:09:17.768Z,45.18
2018-08-02T12:10:17.739Z,45.28
2018-08-02T12:11:17.745Z,45.76
2018-08-02T12:12:17.753Z,45.94
2018-08-02T12:13:17.756Z,46.23
2018-08-02T12:14:17.763Z,46.23
2018-08-02T12:15:17.774Z,46.23
2018-08-02T12:16:17.878Z,46.65
2018-08-02T12:17:17.782Z,46.55
2018-08-02T12:18:17.786Z,46.36
2018-08-02T12:19:17.928Z,45.97
2018-08-02T12:20:17.912Z,45.57
2018-08-02T12:21:17.803Z,46.08
2018-08-02T12:22:17.945Z,46.18
2018-08-02T12:23:17.814Z,46.28
2018-08-02T12:24:17.824Z,45.98
2018-08-02T12:25:17.829Z,45.62
2018-08-02T12:26:17.832Z,45.42
2018-08-02T12:27:17.837Z,44.83
2018-08-02T12:28:17.846Z,44.83
2018-08-02T12:29:17.873Z,45.23
2018-08-02T12:30:17.860Z,44.93
2018-08-02T12:31:17.863Z,45.42
2018-08-02T12:32:17.870Z,45.03
2018-08-02T12:33:17.893Z,45.32
2018-08-02T12:34:17.880Z,45.3
2018-08-02T12:35:17.887Z,45.4
2018-08-02T12:36:17.895Z,45.42
2018-08-02T12:37:17.657Z,45.13
2018-08-02T12:38:18.020Z,45.13
2018-08-02T12:39:17.660Z,44.83
2018-08-02T12:40:18.094Z,44.54
2018-08-02T12:41:17.925Z,44.34
2018-08-02T12:42:17.956Z,44.24
2018-08-02T12:43:17.939Z,44.54
2018-08-02T12:44:17.946Z,44.54
2018-08-02T12:45:17.699Z,44.24
2018-08-02T12:46:17.956Z,44.27
2018-08-02T12:47:17.967Z,44.46
2018-08-02T12:48:18.111Z,44.93
2018-08-02T12:49:17.979Z,44.54
2018-08-02T12:50:17.983Z,44.83
2018-08-02T12:51:17.988Z,44.93
2018-08-02T12:52:18.106Z,44.64
2018-08-02T12:53:18.005Z,44.73
2018-08-02T12:54:18.137Z,44.66
2018-08-02T12:55:18.016Z,44.46